createdAt,value
2019-04-21T00:00:54.191Z,99.90
2019-04-21T00:03:27.494Z,99.90
2019-04-21T00:06:15.671Z,99.90
2019-04-21T00:08:48.426Z,99.90
2019-04-21T00:11:15.259Z,99.90
2019-04-21T00:13:42.467Z,99.90
2019-04-21T00:16:05.127Z,99.90
2019-04-21T00:18:58.074Z,99.90
2019-04-21T00:21:30.179Z,99.90
2019-04-21T00:24:24.847Z,99.90
2019-04-21T00:27:02.488Z,99.90
2019-04-21T00:29:38.352Z,99.90
2019-04-21T00:32:03.021Z,99.90
2019-04-21T00:34:21.916Z,99.90
2019-04-21T00:37:05.014Z,99.90
2019-04-21T00:39:58.812Z,99.90
2019-04-21T00:42:14.158Z,99.90
2019-04-21T00:44:40.066Z,99.90
2019-04-21T00:47:25.502Z,99.90
2019-04-21T00:49:57.835Z,99.90
2019-04-21T00:52:48.833Z,99.90
2019-04-21T00:55:24.440Z,99.90
2019-04-21T00:57:45.775Z,99.90
2019-04-21T01:00:22.355Z,99.90
2019-04-21T01:02:56.546Z,99.90
2019-04-21T01:05:38.638Z,99.90
2019-04-21T01:08:13.341Z,99.90
2019-04-21T01:10:40.936Z,99.90
2019-04-21T01:13:21.599Z,99.90
2019-04-21T01:15:52.816Z,99.90
2019-04-21T01:18:29.513Z,99.90
2019-04-21T01:20:36.995Z,99.90
2019-04-21T01:23:06.469Z,99.90
2019-04-21T01:25:44.856Z,99.90
2019-04-21T01:28:27.176Z,99.90
2019-04-21T01:31:05.705Z,99.90
2019-04-21T01:33:38.023Z,99.90
2019-04-21T01:36:08.447Z,99.90
2019-04-21T01:41:17.969Z,99.90
2019-04-21T01:43:39.571Z,99.90
2019-04-21T01:46:14.157Z,99.90
2019-04-21T01:48:44.338Z,99.90
2019-04-21T01:51:17.110Z,99.90
2019-04-21T01:54:09.977Z,99.90
2019-04-21T01:56:57.029Z,99.90
2019-04-21T01:59:29.581Z,99.90
2019-04-21T02:02:05.274Z,99.90
2019-04-21T02:04:41.780Z,99.90
2019-04-21T02:07:13.001Z,99.90
2019-04-21T02:09:38.006Z,99.90
2019-04-21T02:12:17.169Z,99.90
2019-04-21T02:14:50.326Z,99.90
2019-04-21T02:17:16.425Z,99.90
2019-04-21T02:19:48.050Z,99.90
2019-04-21T02:22:28.716Z,99.90
2019-04-21T02:25:03.793Z,99.90
2019-04-21T02:27:31.079Z,99.90
2019-04-21T02:30:14.607Z,99.90
2019-04-21T02:32:48.376Z,99.90
2019-04-21T02:35:20.771Z,99.90
2019-04-21T02:37:55.653Z,99.90
2019-04-21T02:40:22.313Z,99.90
2019-04-21T02:42:56.101Z,99.90
2019-04-21T02:45:29.759Z,99.90
2019-04-21T02:50:31.755Z,99.90
2019-04-21T02:53:07.081Z,99.90
2019-04-21T02:55:31.285Z,99.90
2019-04-21T02:58:06.216Z,99.90
2019-04-21T03:00:56.973Z,99.90
2019-04-21T03:03:36.363Z,99.90
2019-04-21T03:06:15.384Z,99.90
2019-04-21T03:08:56.717Z,99.90
2019-04-21T03:11:14.629Z,99.90
2019-04-21T03:13:57.186Z,99.90
2019-04-21T03:16:26.548Z,99.90
2019-04-21T03:18:57.788Z,99.90
2019-04-21T03:21:29.064Z,99.90
2019-04-21T03:24:01.300Z,99.90
2019-04-21T03:26:36.628Z,99.90
2019-04-21T03:29:03.609Z,99.90
2019-04-21T03:32:05.563Z,99.90
2019-04-21T03:34:50.382Z,99.90
2019-04-21T03:39:11.874Z,99.90
2019-04-21T03:41:54.271Z,99.90
2019-04-21T03:44:24.677Z,99.90
2019-04-21T03:52:03.829Z,99.90
2019-04-21T03:54:39.179Z,99.90
2019-04-21T03:59:36.696Z,99.90
2019-04-21T04:02:39.026Z,99.90
2019-04-21T04:05:13.107Z,99.90
2019-04-21T04:10:22.903Z,99.90
2019-04-21T04:12:54.697Z,99.90
2019-04-21T04:15:32.335Z,99.90
2019-04-21T04:17:46.937Z,99.90
2019-04-21T04:22:56.246Z,99.90
2019-04-21T04:25:42.852Z,99.90
2019-04-21T04:33:12.426Z,99.90
2019-04-21T04:35:52.466Z,99.90
2019-04-21T04:38:20.124Z,99.90
2019-04-21T04:41:36.884Z,99.90
2019-04-21T04:43:44.755Z,99.90
2019-04-21T04:46:18.334Z,99.90
2019-04-21T04:48:51.379Z,99.90
2019-04-21T04:51:25.231Z,99.90
2019-04-21T04:53:46.898Z,99.90
2019-04-21T04:56:38.743Z,99.90
2019-04-21T05:01:32.732Z,99.90
2019-04-21T05:09:09.446Z,99.90
2019-04-21T05:11:46.401Z,99.90
2019-04-21T05:16:46.769Z,99.90
2019-04-21T05:19:20.183Z,99.90
2019-04-21T05:21:40.527Z,99.90
2019-04-21T05:24:02.638Z,99.90
2019-04-21T05:26:33.383Z,99.90
2019-04-21T05:29:01.894Z,99.90
2019-04-21T05:34:42.634Z,99.90
2019-04-21T05:37:33.221Z,99.90
2019-04-21T05:40:10.587Z,99.90
2019-04-21T05:42:44.440Z,99.90
2019-04-21T05:45:18.537Z,99.90
2019-04-21T05:48:17.820Z,99.90
2019-04-21T05:50:42.902Z,99.90
2019-04-21T05:53:20.011Z,99.90
2019-04-21T05:55:54.570Z,99.90
2019-04-21T05:58:14.963Z,99.90
2019-04-21T06:03:42.730Z,99.90
2019-04-21T06:06:10.064Z,99.90
2019-04-21T06:08:31.370Z,99.90
2019-04-21T06:11:07.368Z,99.90
2019-04-21T06:13:48.164Z,99.90
2019-04-21T06:16:30.270Z,99.90
2019-04-21T06:18:52.951Z,99.90
2019-04-21T06:21:16.469Z,99.90
2019-04-21T06:23:49.641Z,99.90
2019-04-21T06:26:51.810Z,99.90
2019-04-21T06:28:59.314Z,99.90
2019-04-21T06:34:04.657Z,99.90
2019-04-21T06:36:47.107Z,99.90
2019-04-21T06:39:42.682Z,99.90
2019-04-21T06:41:49.107Z,99.90
2019-04-21T06:44:22.437Z,99.90
2019-04-21T06:46:53.226Z,99.90
2019-04-21T06:49:27.473Z,99.90
2019-04-21T06:51:59.976Z,99.90
2019-04-21T06:54:35.632Z,99.90
2019-04-21T06:57:04.911Z,99.90
2019-04-21T06:59:31.912Z,99.90
2019-04-21T07:02:31.439Z,99.90
2019-04-21T07:04:47.009Z,99.90
2019-04-21T07:07:15.915Z,99.90
2019-04-21T07:09:52.573Z,99.90
2019-04-21T07:12:18.593Z,99.90
2019-04-21T07:14:54.709Z,99.90
2019-04-21T07:17:33.627Z,99.90
2019-04-21T07:20:00.135Z,99.90
2019-04-21T07:22:31.106Z,99.90
2019-04-21T07:25:03.014Z,99.90
2019-04-21T07:30:06.750Z,99.90
2019-04-21T07:32:33.418Z,99.90
2019-04-21T07:35:17.501Z,99.90
2019-04-21T07:37:41.384Z,99.90
2019-04-21T07:40:05.189Z,99.90
2019-04-21T07:42:38.513Z,99.90
2019-04-21T07:45:07.294Z,99.90
2019-04-21T07:47:51.785Z,99.80
2019-04-21T07:50:26.347Z,99.70
2019-04-21T07:53:24.348Z,99.20
2019-04-21T07:58:22.504Z,97.50
2019-04-21T08:00:56.381Z,97.20
2019-04-21T08:03:30.049Z,96.10
2019-04-21T08:05:59.083Z,95.30
2019-04-21T08:08:31.403Z,95.10
2019-04-21T08:11:07.349Z,95.00
2019-04-21T08:16:10.989Z,93.30
2019-04-21T08:18:39.717Z,92.80
2019-04-21T08:21:17.184Z,91.60
2019-04-21T08:23:41.604Z,91.30
2019-04-21T08:26:17.086Z,91.30
2019-04-21T08:28:46.708Z,89.70
2019-04-21T08:31:23.986Z,89.80
2019-04-21T08:36:28.413Z,87.50
2019-04-21T08:38:54.432Z,87.30
2019-04-21T08:41:25.059Z,86.70
2019-04-21T08:43:59.001Z,86.40
2019-04-21T08:46:31.191Z,83.40
2019-04-21T08:49:02.530Z,82.50
2019-04-21T08:51:33.320Z,82.20
2019-04-21T08:54:13.420Z,81.80
2019-04-21T08:57:06.147Z,80.80
2019-04-21T08:59:55.218Z,80.90
2019-04-21T09:02:40.289Z,80.20
2019-04-21T09:05:15.404Z,77.90
2019-04-21T09:07:49.554Z,77.30
2019-04-21T09:10:17.306Z,76.50
2019-04-21T09:12:53.570Z,76.00
2019-04-21T09:15:30.032Z,72.80
2019-04-21T09:17:48.375Z,71.80
2019-04-21T09:20:26.449Z,71.70
2019-04-21T09:23:02.221Z,71.10
2019-04-21T09:25:33.527Z,72.20
2019-04-21T09:28:01.281Z,70.50
2019-04-21T09:30:17.465Z,69.90
2019-04-21T09:32:49.422Z,68.60
2019-04-21T09:35:22.276Z,67.20
2019-04-21T09:38:26.237Z,64.30
2019-04-21T09:40:45.466Z,65.10
2019-04-21T09:43:13.368Z,65.30
2019-04-21T09:45:43.091Z,64.60
2019-04-21T09:48:18.595Z,62.70
2019-04-21T09:50:45.877Z,63.50
2019-04-21T09:53:25.173Z,61.60
2019-04-21T09:55:53.635Z,61.40
2019-04-21T09:58:26.345Z,60.60
2019-04-21T10:01:01.185Z,60.20
2019-04-21T10:03:23.120Z,58.00
2019-04-21T10:05:52.553Z,59.30
2019-04-21T10:08:22.917Z,59.20
2019-04-21T10:10:54.777Z,58.00
2019-04-21T10:13:25.334Z,55.60
2019-04-21T10:16:13.248Z,56.00
2019-04-21T10:18:43.801Z,57.70
2019-04-21T10:21:15.509Z,57.70
2019-04-21T10:23:45.669Z,56.00
2019-04-21T10:26:15.190Z,53.80
2019-04-21T10:28:44.506Z,52.30
2019-04-21T10:31:14.425Z,51.60
2019-04-21T10:33:44.275Z,51.60
2019-04-21T10:36:15.696Z,51.90
2019-04-21T10:38:51.287Z,52.30
2019-04-21T10:41:17.262Z,50.40
2019-04-21T10:43:47.104Z,50.20
2019-04-21T10:46:16.993Z,49.70
2019-04-21T10:48:48.742Z,49.90
2019-04-21T10:51:19.026Z,48.70
2019-04-21T10:53:52.351Z,49.50
2019-04-21T10:56:29.032Z,49.30
2019-04-21T10:58:54.040Z,49.30
2019-04-21T11:01:29.370Z,49.60
2019-04-21T11:04:07.518Z,49.20
2019-04-21T11:06:36.857Z,49.20
2019-04-21T11:09:10.704Z,47.40
2019-04-21T11:11:44.220Z,48.20
2019-04-21T11:14:11.644Z,47.30
2019-04-21T11:16:42.789Z,47.20
2019-04-21T11:19:12.085Z,47.20
2019-04-21T11:21:42.799Z,47.00
2019-04-21T11:24:12.399Z,46.80
2019-04-21T11:26:42.211Z,46.50
2019-04-21T11:29:12.852Z,45.90
2019-04-21T11:31:43.160Z,46.50
2019-04-21T11:34:13.484Z,46.00
2019-04-21T11:36:43.915Z,46.90
2019-04-21T11:39:35.069Z,47.90
2019-04-21T11:41:55.106Z,46.60
2019-04-21T11:44:24.860Z,46.80
2019-04-21T11:46:54.491Z,46.20
2019-04-21T11:49:27.647Z,46.40
2019-04-21T11:51:56.727Z,45.70
2019-04-21T11:54:26.801Z,44.80
2019-04-21T11:56:56.934Z,44.40
2019-04-21T11:59:27.882Z,45.00
2019-04-21T12:01:59.356Z,44.90
2019-04-21T12:04:29.551Z,45.00
2019-04-21T12:07:01.883Z,44.90
2019-04-21T12:09:35.889Z,44.10
2019-04-21T12:12:05.547Z,42.90
2019-04-21T12:14:36.260Z,43.30
2019-04-21T12:17:05.915Z,43.00
2019-04-21T12:19:36.626Z,42.80
2019-04-21T12:22:14.099Z,43.10
2019-04-21T12:24:38.383Z,41.70
2019-04-21T12:27:09.855Z,42.80
2019-04-21T12:29:41.877Z,43.30
2019-04-21T12:32:33.828Z,41.80
2019-04-21T12:35:03.874Z,40.90
2019-04-21T12:37:34.995Z,39.90
2019-04-21T12:40:06.351Z,39.80
2019-04-21T12:42:38.731Z,40.10
2019-04-21T12:45:09.648Z,39.20
2019-04-21T12:47:39.788Z,39.40
2019-04-21T12:50:11.240Z,39.70
2019-04-21T12:52:41.945Z,38.90
2019-04-21T12:55:13.541Z,37.90
2019-04-21T12:57:43.553Z,35.40
2019-04-21T13:00:15.895Z,34.60
2019-04-21T13:02:45.577Z,34.80
2019-04-21T13:05:15.821Z,37.50
2019-04-21T13:07:45.894Z,39.70
2019-04-21T13:10:18.048Z,40.30
2019-04-21T13:12:48.041Z,39.90
2019-04-21T13:15:17.945Z,39.50
2019-04-21T13:17:47.713Z,39.90
2019-04-21T13:20:17.231Z,39.60
2019-04-21T13:22:48.079Z,39.60
2019-04-21T13:25:19.993Z,39.90
2019-04-21T13:27:49.497Z,40.10
2019-04-21T13:30:20.145Z,40.00
2019-04-21T13:32:49.538Z,39.10
2019-04-21T13:35:19.103Z,39.70
2019-04-21T13:37:50.554Z,39.10
2019-04-21T13:40:49.389Z,39.00
2019-04-21T13:43:08.092Z,38.00
2019-04-21T13:45:37.386Z,38.70
2019-04-21T13:48:16.653Z,38.30
2019-04-21T13:50:47.096Z,37.50
2019-04-21T13:53:20.907Z,37.40
2019-04-21T13:55:50.826Z,37.30
2019-04-21T13:58:42.252Z,37.40
2019-04-21T14:01:11.839Z,37.30
2019-04-21T14:03:41.771Z,37.20
2019-04-21T14:06:12.139Z,36.60
2019-04-21T14:08:44.920Z,36.70
2019-04-21T14:11:15.505Z,37.10
2019-04-21T14:13:44.919Z,37.80
2019-04-21T14:16:24.837Z,37.60
2019-04-21T14:18:55.150Z,36.60
2019-04-21T14:21:25.100Z,35.70
2019-04-21T14:24:06.701Z,35.10
2019-04-21T14:26:36.343Z,35.70
2019-04-21T14:29:06.062Z,36.10
2019-04-21T14:31:35.393Z,35.00
2019-04-21T14:34:06.052Z,35.20
2019-04-21T14:36:36.933Z,35.50
2019-04-21T14:39:12.425Z,35.40
2019-04-21T14:41:42.285Z,34.60
2019-04-21T14:44:13.096Z,34.50
2019-04-21T14:47:09.309Z,33.70
2019-04-21T14:49:59.436Z,34.70
2019-04-21T14:52:32.997Z,35.10
2019-04-21T14:55:16.660Z,34.70
2019-04-21T14:57:47.305Z,33.10
2019-04-21T15:00:19.027Z,32.70
2019-04-21T15:02:49.625Z,32.30
2019-04-21T15:05:19.768Z,32.90
2019-04-21T15:07:49.290Z,31.70
2019-04-21T15:10:23.573Z,32.40
2019-04-21T15:12:49.891Z,32.10
2019-04-21T15:15:20.140Z,32.00
2019-04-21T15:17:49.695Z,32.30
2019-04-21T15:20:20.135Z,32.90
2019-04-21T15:22:50.459Z,32.30
2019-04-21T15:25:21.993Z,31.90
2019-04-21T15:27:52.756Z,31.60
2019-04-21T15:30:22.685Z,30.60
2019-04-21T15:32:52.783Z,30.40
2019-04-21T15:35:22.190Z,30.90
2019-04-21T15:37:58.036Z,31.60
2019-04-21T15:40:37.472Z,31.60
2019-04-21T15:42:58.596Z,31.80
2019-04-21T15:45:30.503Z,31.80
2019-04-21T15:48:00.218Z,32.60
2019-04-21T15:50:32.365Z,32.30
2019-04-21T15:53:05.617Z,32.70
2019-04-21T15:55:48.605Z,32.90
2019-04-21T15:58:40.916Z,32.60
2019-04-21T16:01:18.656Z,32.70
2019-04-21T16:03:49.004Z,33.40
2019-04-21T16:06:19.422Z,33.70
2019-04-21T16:08:52.332Z,34.60
2019-04-21T16:11:20.044Z,34.40
2019-04-21T16:13:49.829Z,34.10
2019-04-21T16:16:20.185Z,33.40
2019-04-21T16:18:50.104Z,33.70
2019-04-21T16:21:19.841Z,33.40
2019-04-21T16:23:50.639Z,32.70
2019-04-21T16:26:20.388Z,33.00
2019-04-21T16:28:50.858Z,33.00
2019-04-21T16:31:22.514Z,33.00
2019-04-21T16:33:52.028Z,33.30
2019-04-21T16:36:21.382Z,33.10
2019-04-21T16:38:51.446Z,33.20
2019-04-21T16:41:22.320Z,33.20
2019-04-21T16:43:53.152Z,33.40
2019-04-21T16:46:23.268Z,33.70
2019-04-21T16:48:55.971Z,34.20
2019-04-21T16:51:26.411Z,34.20
2019-04-21T16:54:08.177Z,34.80
2019-04-21T16:56:46.002Z,34.50
2019-04-21T16:59:32.871Z,33.80
2019-04-21T17:02:04.815Z,36.20
2019-04-21T17:04:34.251Z,37.80
2019-04-21T17:07:05.068Z,38.80
2019-04-21T17:09:34.761Z,39.50
2019-04-21T17:12:09.664Z,39.70
2019-04-21T17:14:53.123Z,40.00
2019-04-21T17:17:34.148Z,39.80
2019-04-21T17:19:45.601Z,40.10
2019-04-21T17:22:13.640Z,39.90
2019-04-21T17:24:46.386Z,39.90
2019-04-21T17:27:17.421Z,40.10
2019-04-21T17:29:48.510Z,40.00
2019-04-21T17:32:18.394Z,39.50
2019-04-21T17:34:50.062Z,39.70
2019-04-21T17:37:22.031Z,39.30
2019-04-21T17:39:52.577Z,39.00
2019-04-21T17:42:31.344Z,39.40
2019-04-21T17:44:55.224Z,39.40
2019-04-21T17:47:36.996Z,39.70
2019-04-21T17:50:15.690Z,40.00
2019-04-21T17:52:59.034Z,40.60
2019-04-21T17:55:29.807Z,41.20
2019-04-21T17:58:12.199Z,42.00
2019-04-21T18:03:35.315Z,42.90
2019-04-21T18:05:50.224Z,43.40
2019-04-21T18:08:33.915Z,44.00
2019-04-21T18:10:49.468Z,44.40
2019-04-21T18:13:17.270Z,45.00
2019-04-21T18:15:56.739Z,45.60
2019-04-21T18:18:14.514Z,46.00
2019-04-21T18:20:46.153Z,46.60
2019-04-21T18:23:46.059Z,47.10
2019-04-21T18:26:11.462Z,47.80
2019-04-21T18:28:35.168Z,48.50
2019-04-21T18:31:10.170Z,49.10
2019-04-21T18:33:45.744Z,49.50
2019-04-21T18:36:40.133Z,50.10
2019-04-21T18:39:46.108Z,50.60
2019-04-21T18:42:26.613Z,51.40
2019-04-21T18:48:02.459Z,51.80
2019-04-21T18:51:02.498Z,52.20
2019-04-21T18:53:46.546Z,52.60
2019-04-21T18:56:07.652Z,52.70
2019-04-21T18:58:33.920Z,53.00
2019-04-21T19:01:11.860Z,53.10
2019-04-21T19:03:41.052Z,53.60
2019-04-21T19:06:11.497Z,54.20
2019-04-21T19:08:59.749Z,54.60
2019-04-21T19:11:31.258Z,55.40
2019-04-21T19:17:11.010Z,55.50
2019-04-21T19:20:00.852Z,55.80
2019-04-21T19:22:29.398Z,56.00
2019-04-21T19:25:13.152Z,56.40
2019-04-21T19:27:45.589Z,56.80
2019-04-21T19:33:03.944Z,57.50
2019-04-21T19:35:19.254Z,57.90
2019-04-21T19:37:56.491Z,58.00
2019-04-21T19:40:38.676Z,58.80
2019-04-21T19:42:57.895Z,59.30
2019-04-21T19:45:35.493Z,59.70
2019-04-21T19:48:15.325Z,60.20
2019-04-21T19:50:48.454Z,60.50
2019-04-21T19:53:05.284Z,61.20
2019-04-21T19:55:27.862Z,61.50
2019-04-21T19:57:58.843Z,62.10
2019-04-21T20:00:30.557Z,62.60
2019-04-21T20:03:00.822Z,64.00
2019-04-21T20:05:40.968Z,64.00
2019-04-21T20:08:17.705Z,64.60
2019-04-21T20:10:55.301Z,65.30
2019-04-21T20:13:35.332Z,66.30
2019-04-21T20:15:56.681Z,67.10
2019-04-21T20:18:22.333Z,67.50
2019-04-21T20:20:41.314Z,68.10
2019-04-21T20:23:19.308Z,68.50
2019-04-21T20:25:48.805Z,69.10
2019-04-21T20:28:28.734Z,69.90
2019-04-21T20:31:03.834Z,70.60
2019-04-21T20:33:48.490Z,71.90
2019-04-21T20:36:12.026Z,73.20
2019-04-21T20:38:32.725Z,74.40
2019-04-21T20:40:59.195Z,75.40
2019-04-21T20:43:42.632Z,76.80
2019-04-21T20:46:10.305Z,77.60
2019-04-21T20:48:40.101Z,79.00
2019-04-21T20:51:18.345Z,79.40
2019-04-21T20:53:45.193Z,80.80
2019-04-21T20:56:11.413Z,82.00
2019-04-21T20:58:53.767Z,83.60
2019-04-21T21:01:39.308Z,85.90
2019-04-21T21:03:56.030Z,87.70
2019-04-21T21:06:26.178Z,89.30
2019-04-21T21:09:00.022Z,90.40
2019-04-21T21:11:35.296Z,91.60
2019-04-21T21:14:07.535Z,91.80
2019-04-21T21:16:44.893Z,92.80
2019-04-21T21:19:18.231Z,94.20
2019-04-21T21:21:34.126Z,94.90
2019-04-21T21:24:08.718Z,95.60
2019-04-21T21:26:47.233Z,96.30
2019-04-21T21:29:11.618Z,96.70
2019-04-21T21:31:49.140Z,97.00
2019-04-21T21:34:20.939Z,97.60
2019-04-21T21:36:51.080Z,98.50
2019-04-21T21:39:15.668Z,98.60
2019-04-21T21:41:40.587Z,99.20
2019-04-21T21:44:09.217Z,99.90
2019-04-21T21:46:50.964Z,99.90
2019-04-21T21:49:23.695Z,99.90
2019-04-21T21:51:51.973Z,99.90
2019-04-21T21:54:11.709Z,99.90
2019-04-21T21:56:42.565Z,99.90
2019-04-21T21:59:20.092Z,99.90
2019-04-21T22:01:51.922Z,99.90
2019-04-21T22:04:25.947Z,99.90
2019-04-21T22:06:55.447Z,99.90
2019-04-21T22:09:22.397Z,99.90
2019-04-21T22:11:56.250Z,99.90
2019-04-21T22:14:31.349Z,99.90
2019-04-21T22:17:10.686Z,99.90
2019-04-21T22:19:48.575Z,99.90
2019-04-21T22:22:14.148Z,99.90
2019-04-21T22:24:43.947Z,99.90
2019-04-21T22:26:59.214Z,99.90
2019-04-21T22:29:36.348Z,99.90
2019-04-21T22:32:08.846Z,99.90
2019-04-21T22:34:39.797Z,99.90
2019-04-21T22:37:21.219Z,99.90
2019-04-21T22:39:49.676Z,99.90
2019-04-21T22:42:15.360Z,99.90
2019-04-21T22:44:36.810Z,99.90
2019-04-21T22:47:14.131Z,99.90
2019-04-21T22:49:39.283Z,99.90
2019-04-21T22:52:15.218Z,99.90
2019-04-21T22:54:43.199Z,99.90
2019-04-21T22:57:16.626Z,99.90
2019-04-21T22:59:47.884Z,99.90
2019-04-21T23:02:22.587Z,99.90
2019-04-21T23:04:54.945Z,99.90
2019-04-21T23:07:24.276Z,99.90
2019-04-21T23:09:53.530Z,99.90
2019-04-21T23:12:28.262Z,99.90
2019-04-21T23:15:03.407Z,99.90
2019-04-21T23:17:48.268Z,99.90
2019-04-21T23:20:18.135Z,99.90
2019-04-21T23:22:55.329Z,99.90
2019-04-21T23:25:18.689Z,99.90
2019-04-21T23:27:47.982Z,99.90
2019-04-21T23:30:26.270Z,99.90
2019-04-21T23:32:42.207Z,99.90
2019-04-21T23:35:16.911Z,99.90
2019-04-21T23:37:44.903Z,99.90
2019-04-21T23:40:14.779Z,99.90
2019-04-21T23:42:42.412Z,99.90
2019-04-21T23:45:12.479Z,99.90
2019-04-21T23:47:53.548Z,99.90
2019-04-21T23:50:25.325Z,99.90
2019-04-21T23:52:45.658Z,99.90
2019-04-21T23:55:19.001Z,99.90
2019-04-21T23:57:50.183Z,99.90
